Time;durP1;ratioP1;P1;durP2;ratioP2;P2;SDS_P1;SDS_P2;PMS_P1;PMS_P2;Temp;Humidity;BMP_temperature;BMP_pressure;BME280_temperature;BME280_humidity;BME280_pressure;Samples;Min_cycle;Max_cycle;Signal;HPM_P1;HPM_P2
2022/12/26 00:00:19;;;;;;;48.23;20.63;;;;;;;5.99;100.00;100416.78;5060885;56;1143140;-67
2022/12/26 00:05:27;;;;;;;56.65;26.15;;;;;;;6.02;100.00;100410.97;4982698;57;1143027;-70
2022/12/26 00:10:33;;;;;;;46.17;23.27;;;;;;;6.03;100.00;100408.73;5138231;55;1152594;-68
2022/12/26 00:15:41;;;;;;;48.25;22.62;;;;;;;6.07;100.00;100400.58;5164131;55;1142932;-70
2022/12/26 00:20:46;;;;;;;39.13;20.10;;;;;;;6.11;100.00;100391.55;5076904;56;1142850;-69
2022/12/26 00:25:52;;;;;;;43.00;19.40;;;;;;;6.14;100.00;100375.62;5196471;55;1142954;-65
2022/12/26 00:30:58;;;;;;;41.87;19.10;;;;;;;6.17;100.00;100371.50;5159356;55;1142976;-65
2022/12/26 00:36:07;;;;;;;32.13;18.03;;;;;;;6.23;100.00;100351.91;5027836;56;1142887;-66
2022/12/26 00:41:15;;;;;;;33.83;16.77;;;;;;;6.25;100.00;100337.75;5015796;57;1143067;-67
2022/12/26 00:46:21;;;;;;;32.07;14.83;;;;;;;6.27;100.00;100333.21;5071938;56;1142891;-68
2022/12/26 00:51:27;;;;;;;37.65;17.75;;;;;;;6.30;100.00;100325.61;5105214;55;1143034;-67
2022/12/26 00:56:33;;;;;;;30.72;13.78;;;;;;;6.38;100.00;100338.28;5131352;55;1142999;-69
2022/12/26 01:01:39;;;;;;;34.25;17.00;;;;;;;6.41;100.00;100342.03;5151432;55;1142949;-69
2022/12/26 01:06:44;;;;;;;35.68;17.17;;;;;;;6.44;100.00;100334.78;5124495;55;1142876;-67
2022/12/26 01:11:51;;;;;;;30.10;16.27;;;;;;;6.49;100.00;100335.34;5019184;56;1143087;-70
2022/12/26 01:16:56;;;;;;;30.50;15.03;;;;;;;6.53;100.00;100321.55;5020494;57;1142863;-66
2022/12/26 01:22:02;;;;;;;35.90;19.07;;;;;;;6.56;100.00;100318.73;5035883;55;1143015;-67
2022/12/26 01:27:09;;;;;;;33.47;14.77;;;;;;;6.57;100.00;100302.84;5151133;55;1142797;-70
2022/12/26 01:32:15;;;;;;;28.02;12.28;;;;;;;6.61;100.00;100296.92;5160183;55;1143290;-66
2022/12/26 01:37:22;;;;;;;29.37;15.93;;;;;;;6.64;100.00;100287.06;5014993;56;1143042;-66
2022/12/26 01:42:31;;;;;;;33.23;16.23;;;;;;;6.67;100.00;100275.52;4952018;56;1142948;-70
2022/12/26 01:47:53;;;;;;;36.10;17.23;;;;;;;6.69;100.00;100272.31;4935337;56;1142861;-70
2022/12/26 01:53:20;;;;;;;34.43;16.53;;;;;;;6.70;100.00;100220.13;4981260;57;1143048;-67
2022/12/26 01:58:45;;;;;;;29.37;13.53;;;;;;;6.73;100.00;100240.08;5015291;57;1142859;-68
2022/12/26 02:09:14;;;;;;;29.12;14.23;;;;;;;6.77;100.00;100214.81;4754402;59;1143003;-68
2022/12/26 02:14:21;;;;;;;19.63;9.73;;;;;;;6.77;100.00;100210.88;4873113;59;1143111;-67
2022/12/26 02:19:43;;;;;;;32.20;16.77;;;;;;;6.77;100.00;100204.30;4854314;59;1141011;-69
2022/12/26 02:25:10;;;;;;;28.23;15.43;;;;;;;6.81;100.00;100193.97;4854680;58;1143097;-68
2022/12/26 02:30:33;;;;;;;26.70;14.10;;;;;;;6.81;100.00;100182.61;4854113;59;1143072;-67
2022/12/26 02:36:00;;;;;;;27.73;13.55;;;;;;;6.82;100.00;100181.66;4939280;58;1143128;-65
2022/12/26 02:41:43;;;;;;;34.88;14.53;;;;;;;6.83;100.00;100182.03;4993094;56;1261478;-65
2022/12/26 02:47:03;;;;;;;25.83;13.77;;;;;;;6.85;100.00;100161.75;5016277;56;1142902;-67
2022/12/26 03:14:34;;;;;;;27.00;12.07;;;;;;;6.86;100.00;100124.00;5000961;56;1142951;-71
2022/12/26 03:19:56;;;;;;;20.68;10.53;;;;;;;6.89;100.00;100118.52;5109076;55;1143024;-69
2022/12/26 03:35:37;;;;;;;21.27;10.20;;;;;;;6.97;100.00;100097.81;5032278;56;1143000;-70
2022/12/26 04:20:12;;;;;;;20.03;10.03;;;;;;;7.06;100.00;100095.38;5129300;55;1142938;-69
2022/12/26 04:47:24;;;;;;;16.37;9.07;;;;;;;7.24;100.00;100078.78;5033909;56;1141108;-67
2022/12/26 04:53:19;;;;;;;11.90;6.67;;;;;;;7.28;100.00;100082.05;5070297;56;1140752;-67
2022/12/26 04:57:37;;;;;;;15.40;7.90;;;;;;;7.31;100.00;100080.05;5027530;56;1140796;-69
2022/12/26 05:13:45;;;;;;;14.10;7.12;;;;;;;7.43;100.00;100075.69;5036068;57;1141135;-71
2022/12/26 05:29:37;;;;;;;16.10;6.70;;;;;;;7.54;100.00;100049.91;5125000;55;1140810;-67
2022/12/26 05:34:44;;;;;;;15.15;6.55;;;;;;;7.60;100.00;100056.89;5088394;55;1140867;-67
2022/12/26 05:39:50;;;;;;;9.85;5.92;;;;;;;7.65;100.00;100048.64;5018489;57;1140906;-65
2022/12/26 05:44:55;;;;;;;12.43;7.17;;;;;;;7.66;100.00;100047.22;5018060;56;1138698;-69
2022/12/26 05:50:01;;;;;;;9.60;6.17;;;;;;;7.68;100.00;100052.38;5054227;56;1141162;-66
2022/12/26 05:55:08;;;;;;;11.40;5.80;;;;;;;7.67;100.00;100050.22;5073463;55;1138865;-66
2022/12/26 06:00:16;;;;;;;14.13;6.33;;;;;;;7.70;100.00;100048.69;5040409;56;1141075;-68
2022/12/26 06:05:22;;;;;;;13.77;5.70;;;;;;;7.72;100.00;100046.78;5084681;55;1140744;-68
2022/12/26 06:10:29;;;;;;;11.57;5.90;;;;;;;7.73;100.00;100044.99;5051365;56;1140889;-68
2022/12/26 06:15:35;;;;;;;9.08;6.22;;;;;;;7.77;100.00;100050.41;5070362;56;1140752;-68
2022/12/26 06:20:41;;;;;;;12.15;6.30;;;;;;;7.77;100.00;100043.82;5093214;55;1139026;-68
2022/12/26 06:25:55;;;;;;;12.30;7.70;;;;;;;7.78;100.00;100044.66;5172174;55;1140939;-70
2022/12/26 06:31:11;;;;;;;9.50;4.97;;;;;;;7.79;100.00;100029.23;5185783;55;1140963;-72
2022/12/26 06:36:20;;;;;;;14.65;5.85;;;;;;;7.80;100.00;100040.09;4972421;55;1138809;-71
2022/12/26 06:41:26;;;;;;;7.27;5.47;;;;;;;7.83;100.00;100042.03;5053564;56;1140856;-68
2022/12/26 06:46:32;;;;;;;7.60;5.17;;;;;;;7.85;100.00;100034.87;5017052;57;1138726;-70
2022/12/26 06:51:39;;;;;;;14.93;7.13;;;;;;;7.86;100.00;100043.13;5008885;56;1138816;-67
2022/12/26 06:56:45;;;;;;;10.23;5.37;;;;;;;7.90;100.00;100024.84;5054733;56;1140868;-70
2022/12/26 07:01:51;;;;;;;10.53;6.00;;;;;;;7.93;100.00;100044.84;5082341;55;1140829;-69
2022/12/26 07:06:57;;;;;;;11.73;5.80;;;;;;;7.94;100.00;100036.00;5094974;55;1140967;-70
2022/12/26 07:12:05;;;;;;;13.97;6.37;;;;;;;7.94;100.00;100052.64;5037404;57;1140945;-66
2022/12/26 07:17:11;;;;;;;9.40;5.37;;;;;;;7.95;100.00;100041.59;5048014;56;1141073;-66
2022/12/26 07:22:17;;;;;;;11.63;6.22;;;;;;;7.95;100.00;100046.86;5109579;56;1138806;-68
2022/12/26 07:27:23;;;;;;;11.07;5.83;;;;;;;7.94;100.00;100039.47;5123290;56;1141079;-67
2022/12/26 07:32:28;;;;;;;15.20;8.23;;;;;;;7.96;100.00;100053.81;5075143;56;1140968;-69
2022/12/26 07:37:34;;;;;;;11.67;6.13;;;;;;;7.97;100.00;100056.33;5139073;55;1140830;-68
2022/12/26 07:42:40;;;;;;;11.57;6.70;;;;;;;7.99;100.00;100033.84;5122104;56;1140824;-69
2022/12/26 07:47:46;;;;;;;9.25;6.55;;;;;;;8.03;100.00;100032.67;5085126;56;1140987;-67
2022/12/26 07:52:52;;;;;;;8.95;5.42;;;;;;;8.04;100.00;100027.29;5072395;56;1138700;-68
2022/12/26 07:57:58;;;;;;;9.77;6.07;;;;;;;8.08;100.00;100033.17;5099148;56;1138986;-67
2022/12/26 08:03:04;;;;;;;10.77;5.60;;;;;;;8.10;100.00;100037.34;5112211;55;1138807;-67
2022/12/26 08:08:10;;;;;;;8.70;5.60;;;;;;;8.13;100.00;100042.86;5110900;55;1141022;-69
2022/12/26 08:13:16;;;;;;;9.33;6.77;;;;;;;8.21;100.00;100045.78;5121541;55;1148731;-68
2022/12/26 08:18:22;;;;;;;14.17;5.20;;;;;;;8.28;100.00;100050.93;5140950;55;1138876;-68
2022/12/26 08:23:29;;;;;;;7.90;5.70;;;;;;;8.35;100.00;100056.14;5126689;55;1140922;-69
2022/12/26 08:28:35;;;;;;;6.07;5.10;;;;;;;8.46;100.00;100062.75;5013022;56;1138812;-69
2022/12/26 08:33:41;;;;;;;8.93;5.43;;;;;;;8.57;100.00;100070.30;5078059;55;1138962;-70
2022/12/26 08:38:47;;;;;;;5.75;4.30;;;;;;;8.67;100.00;100076.09;5114039;55;1138757;-69
2022/12/26 08:43:53;;;;;;;9.13;4.73;;;;;;;8.79;100.00;100065.92;5079653;56;1138884;-69
2022/12/26 08:48:59;;;;;;;13.90;9.03;;;;;;;8.90;100.00;100068.19;5017334;56;1138737;-65
2022/12/26 08:54:05;;;;;;;14.70;8.83;;;;;;;9.04;100.00;100071.91;5046755;56;1140820;-68
2022/12/26 08:59:12;;;;;;;8.65;4.55;;;;;;;9.21;100.00;100067.47;5109904;55;1140812;-69
2022/12/26 09:04:18;;;;;;;5.23;3.90;;;;;;;9.36;100.00;100070.20;5135968;55;1138834;-70
2022/12/26 09:09:24;;;;;;;6.87;4.00;;;;;;;9.43;100.00;100081.13;5156788;55;1138924;-70
2022/12/26 09:14:30;;;;;;;5.73;3.33;;;;;;;9.46;100.00;100080.89;5102587;55;1138887;-69
2022/12/26 09:19:36;;;;;;;6.50;4.63;;;;;;;9.50;100.00;100075.70;5137394;55;1138788;-68
2022/12/26 09:24:42;;;;;;;5.83;4.00;;;;;;;9.50;100.00;100074.38;5119335;56;1138740;-68
2022/12/26 09:29:47;;;;;;;6.40;4.20;;;;;;;9.53;100.00;100074.98;5102006;55;1138685;-68
2022/12/26 09:34:53;;;;;;;4.77;3.87;;;;;;;9.57;100.00;100078.22;5047243;56;1138980;-69
2022/12/26 09:39:59;;;;;;;8.70;3.73;;;;;;;9.61;100.00;100082.30;5037729;56;1138976;-66
2022/12/26 09:45:17;;;;;;;7.70;3.77;;;;;;;9.64;100.00;100085.15;5033874;56;1138697;-68
2022/12/26 09:50:34;;;;;;;4.47;3.57;;;;;;;9.68;100.00;100091.87;5076421;56;1138676;-67
2022/12/26 09:56:02;;;;;;;7.80;3.27;;;;;;;9.68;100.00;100102.44;5069666;56;1138699;-70
2022/12/26 10:01:24;;;;;;;9.50;4.37;;;;;;;9.69;100.00;100096.19;5090299;56;1138892;-69
2022/12/26 10:06:45;;;;;;;7.10;4.00;;;;;;;9.70;100.00;100094.75;5117086;56;1138757;-68
2022/12/26 10:12:07;;;;;;;9.05;5.58;;;;;;;9.72;100.00;100090.19;5038149;56;1138776;-68
2022/12/26 10:17:20;;;;;;;6.10;5.50;;;;;;;9.79;100.00;100077.30;5057637;56;1138812;-70
2022/12/26 10:23:04;;;;;;;8.60;5.80;;;;;;;9.83;100.00;100060.25;5039421;56;1138943;-67
2022/12/26 10:28:26;;;;;;;15.70;6.70;;;;;;;9.88;100.00;100062.05;5108117;55;1139137;-67
2022/12/26 10:33:48;;;;;;;3.70;3.10;;;;;;;9.95;100.00;100062.37;5114684;55;1141029;-68
2022/12/26 10:38:58;;;;;;;7.67;3.97;;;;;;;10.02;100.00;100059.59;5038185;56;1138785;-68
2022/12/26 10:44:03;;;;;;;5.67;4.30;;;;;;;10.07;100.00;100071.95;5051448;56;1140982;-65
2022/12/26 10:49:12;;;;;;;9.30;4.27;;;;;;;10.09;100.00;100077.92;5095521;55;1141135;-71
2022/12/26 10:54:19;;;;;;;5.07;3.60;;;;;;;10.09;100.00;100074.80;5020157;56;1140910;-70
2022/12/26 10:59:49;;;;;;;3.00;2.80;;;;;;;10.11;100.00;100075.98;5094207;54;1140887;-70
2022/12/26 11:05:10;;;;;;;15.75;10.13;;;;;;;10.12;100.00;100061.34;5130976;55;1140924;-67
2022/12/26 11:10:20;;;;;;;7.27;3.93;;;;;;;10.13;100.00;100045.84;5069195;55;1145104;-70
2022/12/26 11:15:41;;;;;;;9.40;3.80;;;;;;;10.16;100.00;100046.07;5025989;56;1141055;-69
2022/12/26 11:20:49;;;;;;;5.40;3.12;;;;;;;10.21;100.00;100059.30;5052229;56;1140978;-66
2022/12/26 11:26:01;;;;;;;7.87;3.80;;;;;;;10.24;100.00;100063.47;5106137;55;1140835;-68
2022/12/26 11:31:17;;;;;;;3.87;3.10;;;;;;;10.30;100.00;100064.77;5119142;56;1140856;-69
2022/12/26 11:36:28;;;;;;;5.70;3.00;;;;;;;10.32;100.00;100073.41;5015762;56;1140732;-70
2022/12/26 11:41:41;;;;;;;4.37;2.93;;;;;;;10.32;100.00;100075.58;5024451;57;1140722;-71
2022/12/26 11:46:55;;;;;;;5.00;3.50;;;;;;;10.36;100.00;100077.48;5118801;55;1140755;-67
2022/12/26 11:52:22;;;;;;;12.37;4.97;;;;;;;10.39;100.00;100082.52;5183458;55;1140766;-69
2022/12/26 11:57:34;;;;;;;3.17;2.80;;;;;;;10.39;100.00;100088.62;5041886;56;1142883;-68
2022/12/26 12:02:41;;;;;;;6.50;2.83;;;;;;;10.39;100.00;100087.30;5043658;56;1140782;-68
2022/12/26 12:08:00;;;;;;;18.70;5.97;;;;;;;10.41;100.00;100087.17;5067861;56;1140796;-66
2022/12/26 12:13:46;;;;;;;5.67;3.03;;;;;;;10.44;100.00;100073.70;5010795;56;1142824;-68
2022/12/26 12:19:34;;;;;;;6.87;3.12;;;;;;;10.44;100.00;100075.86;4939901;57;1140715;-69
2022/12/26 12:24:47;;;;;;;24.17;9.27;;;;;;;10.46;100.00;100061.20;4980633;57;1140860;-68
2022/12/26 12:30:10;;;;;;;20.37;5.97;;;;;;;10.47;100.00;100049.66;5091606;56;1142818;-70
2022/12/26 12:35:24;;;;;;;17.10;4.57;;;;;;;10.49;100.00;100046.41;5031792;56;1143079;-68
2022/12/26 12:41:08;;;;;;;9.97;3.57;;;;;;;10.47;100.00;100050.97;5002196;57;1142883;-69
2022/12/26 12:46:33;;;;;;;11.83;5.12;;;;;;;10.42;100.00;100047.88;5063118;56;1140904;-68
2022/12/26 12:52:07;;;;;;;11.53;3.43;;;;;;;10.41;100.00;100043.55;4932388;57;1142860;-67
2022/12/26 12:57:20;;;;;;;7.95;3.27;;;;;;;10.42;100.00;100055.80;4944635;57;1143199;-71
2022/12/26 13:02:51;;;;;;;3.55;2.15;;;;;;;10.40;100.00;100049.32;5022638;57;1141237;-67
2022/12/26 13:08:10;;;;;;;8.13;3.15;;;;;;;10.40;100.00;100047.16;4949352;57;1140913;-71
2022/12/26 13:13:40;;;;;;;12.30;5.47;;;;;;;10.40;100.00;100063.86;5008366;57;1140805;-70
2022/12/26 13:18:59;;;;;;;13.47;4.20;;;;;;;10.41;100.00;100073.47;5013308;57;1142883;-70
2022/12/26 13:24:24;;;;;;;11.27;3.73;;;;;;;10.41;100.00;100056.28;4986447;57;1143099;-69
2022/12/26 13:29:35;;;;;;;9.93;3.67;;;;;;;10.39;100.00;100051.61;5012852;57;1142907;-67
2022/12/26 13:34:43;;;;;;;2.50;2.30;;;;;;;10.39;100.00;100058.73;4994612;57;1140999;-70
2022/12/26 13:39:52;;;;;;;7.53;3.02;;;;;;;10.37;100.00;100061.98;4978768;57;1140806;-68
2022/12/26 13:45:22;;;;;;;3.60;2.27;;;;;;;10.33;100.00;100065.36;4945424;57;1140916;-66
2022/12/26 13:50:54;;;;;;;2.00;1.47;;;;;;;10.31;100.00;100068.61;5059988;56;1140772;-67
2022/12/26 13:56:14;;;;;;;3.63;2.40;;;;;;;10.28;100.00;100071.50;5013825;57;1140726;-67
2022/12/26 14:01:48;;;;;;;5.80;2.80;;;;;;;10.25;100.00;100070.91;5096018;56;1141029;-68
2022/12/26 14:07:16;;;;;;;2.85;2.12;;;;;;;10.21;100.00;100089.69;5030376;57;1141046;-70
2022/12/26 14:12:56;;;;;;;5.07;2.47;;;;;;;10.20;100.00;100107.83;5011381;57;1140888;-66
2022/12/26 14:18:08;;;;;;;2.40;1.60;;;;;;;10.20;100.00;100102.55;4976030;57;1140981;-66
2022/12/26 14:23:33;;;;;;;5.75;2.08;;;;;;;10.17;100.00;100095.31;5009069;57;1140696;-66
2022/12/26 14:29:14;;;;;;;4.23;2.10;;;;;;;10.16;100.00;100105.53;5113562;56;1140750;-68
2022/12/26 14:34:52;;;;;;;2.00;1.90;;;;;;;10.13;100.00;100118.98;5067901;56;1140756;-67
2022/12/26 14:40:22;;;;;;;1.87;1.77;;;;;;;10.12;100.00;100134.00;5094060;56;1140946;-68
2022/12/26 14:45:32;;;;;;;1.80;1.70;;;;;;;10.10;100.00;100118.75;5072424;56;1141027;-67
2022/12/26 14:50:56;;;;;;;4.43;1.97;;;;;;;10.04;100.00;100127.20;5029785;57;1141053;-68
2022/12/26 14:56:15;;;;;;;4.40;2.02;;;;;;;10.00;100.00;100131.05;5010188;57;1140977;-69
2022/12/26 15:01:29;;;;;;;3.13;1.90;;;;;;;9.96;100.00;100128.77;5009885;57;1141055;-65
2022/12/26 15:07:13;;;;;;;3.20;2.10;;;;;;;9.92;100.00;100133.97;5010227;57;1138942;-64
2022/12/26 15:12:27;;;;;;;2.97;2.23;;;;;;;9.90;100.00;100145.97;5035476;56;1138909;-65
2022/12/26 15:17:40;;;;;;;6.33;2.17;;;;;;;9.88;100.00;100137.33;5044976;56;1138755;-67
2022/12/26 15:23:13;;;;;;;3.20;2.33;;;;;;;9.88;100.00;100127.60;5022895;56;1138784;-67
2022/12/26 15:28:47;;;;;;;3.90;2.27;;;;;;;9.83;100.00;100133.73;4876756;57;1138767;-71
2022/12/26 15:34:04;;;;;;;3.53;2.43;;;;;;;9.83;100.00;100159.30;5057173;56;1138703;-67
2022/12/26 15:39:20;;;;;;;2.47;2.22;;;;;;;9.81;100.00;100150.66;5074304;56;1138957;-70
2022/12/26 15:44:53;;;;;;;5.67;2.47;;;;;;;9.81;100.00;100158.58;5109702;56;1138755;-68
2022/12/26 15:50:20;;;;;;;7.12;4.97;;;;;;;9.81;100.00;100161.22;5018501;57;1138772;-67
2022/12/26 15:55:56;;;;;;;4.87;3.17;;;;;;;9.80;100.00;100148.49;5017988;57;1138923;-70
2022/12/26 16:01:03;;;;;;;5.20;3.30;;;;;;;9.81;100.00;100161.22;5018268;57;1138972;-70
2022/12/26 16:06:55;;;;;;;10.87;4.53;;;;;;;9.76;100.00;100166.05;5037921;57;1138770;-69
2022/12/26 16:12:02;;;;;;;4.80;3.10;;;;;;;9.72;100.00;100165.93;5102094;56;1140766;-68
2022/12/26 16:17:21;;;;;;;4.63;2.60;;;;;;;9.68;100.00;100172.41;5102210;56;1138679;-68
2022/12/26 16:22:48;;;;;;;4.08;2.58;;;;;;;9.63;100.00;100180.68;5097411;56;1138872;-69
2022/12/26 16:27:57;;;;;;;9.88;4.22;;;;;;;9.58;100.00;100189.95;5086312;56;1138726;-67
2022/12/26 16:33:04;;;;;;;3.90;2.70;;;;;;;9.55;100.00;100188.38;5040579;56;1138703;-66
2022/12/26 16:38:19;;;;;;;3.87;2.77;;;;;;;9.53;100.00;100191.62;5102586;55;1138765;-64
2022/12/26 16:43:37;;;;;;;5.63;3.23;;;;;;;9.52;100.00;100199.17;5076302;55;1138840;-66
2022/12/26 16:48:41;;;;;;;3.97;3.37;;;;;;;9.50;100.00;100203.25;5121724;56;1138723;-66
2022/12/26 16:53:47;;;;;;;6.10;3.13;;;;;;;9.47;100.00;100202.16;5102194;56;1138767;-67
2022/12/26 16:59:06;;;;;;;12.35;3.75;;;;;;;9.44;100.00;100207.70;5102070;56;1138803;-65
2022/12/26 17:04:24;;;;;;;7.40;3.47;;;;;;;9.43;100.00;100199.43;5101884;56;1140847;-65
2022/12/26 17:09:43;;;;;;;3.60;2.33;;;;;;;9.40;100.00;100213.34;5175342;55;1138723;-67
2022/12/26 17:14:51;;;;;;;2.83;2.60;;;;;;;9.34;100.00;100209.36;5188457;55;1138836;-68
2022/12/26 17:20:00;;;;;;;9.23;4.20;;;;;;;9.36;100.00;100211.41;5186154;55;1138828;-68
2022/12/26 17:25:26;;;;;;;5.13;3.33;;;;;;;9.33;100.00;100212.95;5206830;55;1138799;-67
2022/12/26 17:30:35;;;;;;;52.17;36.80;;;;;;;9.32;100.00;100213.91;5186222;55;1138627;-65
2022/12/26 17:35:42;;;;;;;4.72;3.40;;;;;;;9.31;100.00;100211.42;5045917;55;1142914;-65
2022/12/26 17:40:50;;;;;;;3.45;2.90;;;;;;;9.28;100.00;100204.58;5025059;56;1138816;-66
2022/12/26 17:45:56;;;;;;;7.33;4.97;;;;;;;9.26;100.00;100207.81;4985654;55;1138886;-66
2022/12/26 17:51:06;;;;;;;8.63;3.40;;;;;;;9.25;100.00;100201.33;5015835;57;1138868;-67
2022/12/26 17:56:22;;;;;;;5.93;3.83;;;;;;;9.24;100.00;100194.36;5016078;57;1138946;-67
2022/12/26 18:01:27;;;;;;;7.53;4.50;;;;;;;9.22;100.00;100202.39;5035597;57;1138694;-67
2022/12/26 18:06:33;;;;;;;7.97;4.90;;;;;;;9.17;100.00;100201.90;5015892;55;1138683;-70
2022/12/26 18:11:39;;;;;;;6.73;3.23;;;;;;;9.12;100.00;100205.39;5015400;57;1138905;-68
2022/12/26 18:16:45;;;;;;;10.72;5.45;;;;;;;9.06;100.00;100208.01;5034980;56;1138861;-71
2022/12/26 18:21:51;;;;;;;26.47;13.27;;;;;;;9.05;100.00;100203.69;5026278;55;1143087;-67
2022/12/26 18:26:57;;;;;;;30.77;14.20;;;;;;;9.01;100.00;100206.70;5117181;55;1143101;-70
2022/12/26 18:32:03;;;;;;;20.77;10.20;;;;;;;8.93;100.00;100209.90;5111057;56;1142971;-72
2022/12/26 18:37:12;;;;;;;19.73;11.13;;;;;;;8.89;100.00;100195.73;5017424;57;1143106;-68
2022/12/26 18:42:18;;;;;;;16.53;8.53;;;;;;;8.83;100.00;100210.24;5017234;56;1142960;-70
2022/12/26 18:47:24;;;;;;;10.85;7.30;;;;;;;8.78;100.00;100208.42;5018168;56;1140895;-71
2022/12/26 18:52:30;;;;;;;11.87;5.57;;;;;;;8.74;100.00;100211.75;5045806;55;1141279;-68
2022/12/26 18:57:36;;;;;;;11.27;5.77;;;;;;;8.71;100.00;100204.06;5071264;56;1140944;-70
2022/12/26 19:02:43;;;;;;;10.20;5.47;;;;;;;8.73;100.00;100211.86;5071425;56;1141012;-69
2022/12/26 19:07:50;;;;;;;10.82;4.87;;;;;;;8.76;100.00;100211.16;5086715;56;1140895;-72
2022/12/26 19:13:00;;;;;;;8.28;4.53;;;;;;;8.77;100.00;100208.05;5066627;55;1140706;-68
2022/12/26 19:18:06;;;;;;;9.58;5.03;;;;;;;8.80;100.00;100202.08;4931912;57;1138761;-68
2022/12/26 19:23:13;;;;;;;7.83;4.07;;;;;;;8.83;100.00;100192.26;5086354;56;1143551;-69
2022/12/26 19:28:19;;;;;;;7.93;4.40;;;;;;;8.83;100.00;100190.94;5094016;55;1139010;-66
2022/12/26 19:33:24;;;;;;;6.60;4.13;;;;;;;8.80;100.00;100195.48;5091595;55;1138855;-69
2022/12/26 19:38:30;;;;;;;6.87;4.53;;;;;;;8.81;100.00;100203.77;5165195;55;1138763;-69
2022/12/26 19:43:36;;;;;;;5.50;4.13;;;;;;;8.81;100.00;100198.97;5088652;55;1138738;-66
2022/12/26 19:48:43;;;;;;;6.97;4.47;;;;;;;8.81;100.00;100202.92;5129842;55;1138824;-66
2022/12/26 19:53:49;;;;;;;6.33;4.97;;;;;;;8.82;100.00;100211.20;5012051;55;1138706;-71
2022/12/26 19:58:55;;;;;;;6.30;4.35;;;;;;;8.77;100.00;100200.98;5037942;56;1138838;-71
2022/12/26 20:04:05;;;;;;;5.53;3.80;;;;;;;8.80;100.00;100207.83;5016809;56;1138761;-67
2022/12/26 20:09:14;;;;;;;5.80;4.50;;;;;;;8.81;100.00;100218.73;5023802;56;1138835;-69
2022/12/26 20:14:24;;;;;;;6.47;4.30;;;;;;;8.80;100.00;100218.38;5091418;56;1139023;-69
2022/12/26 20:19:30;;;;;;;6.33;4.20;;;;;;;8.80;100.00;100211.78;5174544;55;1138708;-69
2022/12/26 20:24:36;;;;;;;7.80;3.83;;;;;;;8.79;100.00;100225.45;5158076;55;1138719;-69
2022/12/26 20:29:42;;;;;;;29.37;12.60;;;;;;;8.80;100.00;100219.70;5157345;55;1138872;-68
2022/12/26 20:34:47;;;;;;;11.10;4.87;;;;;;;8.80;100.00;100201.23;5098210;55;1143067;-71
2022/12/26 20:39:53;;;;;;;9.93;4.03;;;;;;;8.79;100.00;100203.51;4996464;56;1261098;-67
2022/12/26 20:44:59;;;;;;;32.50;12.13;;;;;;;8.74;100.00;100189.34;5102790;56;1138819;-70
2022/12/26 20:50:05;;;;;;;6.67;3.35;;;;;;;8.76;100.00;100198.45;5127548;56;1142977;-66
2022/12/26 20:55:11;;;;;;;3.77;2.67;;;;;;;8.77;100.00;100204.94;5046540;56;1138930;-67
2022/12/26 21:00:17;;;;;;;12.37;2.30;;;;;;;8.75;100.00;100202.89;5048386;56;1138822;-72
2022/12/26 21:05:23;;;;;;;5.35;2.50;;;;;;;8.75;100.00;100231.05;5048304;56;1141027;-69
2022/12/26 21:10:29;;;;;;;8.10;2.70;;;;;;;8.75;100.00;100234.53;5075789;55;1138836;-71
2022/12/26 21:15:34;;;;;;;3.10;2.20;;;;;;;8.78;100.00;100249.28;5060188;56;1138854;-67
2022/12/26 21:20:41;;;;;;;3.17;2.10;;;;;;;8.79;100.00;100262.84;5064900;56;1138904;-68
2022/12/26 21:25:46;;;;;;;5.20;2.93;;;;;;;8.81;100.00;100271.00;5055582;56;1138838;-71
2022/12/26 21:30:52;;;;;;;2.67;2.00;;;;;;;8.80;100.00;100267.16;5039525;56;1138912;-70
2022/12/26 21:36:00;;;;;;;3.90;1.90;;;;;;;8.78;100.00;100275.66;4981435;55;1138869;-68
2022/12/26 21:41:11;;;;;;;4.55;1.70;;;;;;;8.74;100.00;100265.80;5104331;56;1138806;-70
2022/12/26 21:46:19;;;;;;;2.27;2.17;;;;;;;8.71;100.00;100284.48;5011097;56;1138722;-69
2022/12/26 21:51:25;;;;;;;5.03;2.40;;;;;;;8.67;100.00;100280.41;5064586;56;1138773;-65
2022/12/26 21:56:32;;;;;;;4.17;2.00;;;;;;;8.62;100.00;100286.48;5093200;56;1138849;-70
2022/12/26 22:01:37;;;;;;;4.97;2.07;;;;;;;8.55;100.00;100276.52;5076616;56;1138695;-67
2022/12/26 22:06:43;;;;;;;3.37;1.50;;;;;;;8.49;100.00;100269.89;5074550;56;1138658;-70
2022/12/26 22:17:16;;;;;;;2.62;1.75;;;;;;;8.42;100.00;100287.09;5017450;55;1138766;-72
2022/12/26 22:22:22;;;;;;;3.53;1.50;;;;;;;8.42;100.00;100305.05;5134275;55;1138767;-68
2022/12/26 22:27:28;;;;;;;4.70;1.80;;;;;;;8.42;100.00;100321.34;5205157;55;1138691;-70
2022/12/26 22:32:34;;;;;;;4.70;1.37;;;;;;;8.42;100.00;100311.64;5156339;55;1138872;-68
2022/12/26 22:37:39;;;;;;;0.77;0.77;;;;;;;8.41;100.00;100334.16;5091272;55;1138828;-66
2022/12/26 22:42:45;;;;;;;1.43;1.07;;;;;;;8.38;100.00;100347.57;5057407;56;1138715;-70
2022/12/26 22:47:52;;;;;;;3.50;1.10;;;;;;;8.33;100.00;100346.57;5058612;55;1138697;-67
2022/12/26 22:52:57;;;;;;;5.67;1.47;;;;;;;8.24;100.00;100358.22;5062070;55;1138754;-70
2022/12/26 22:58:03;;;;;;;1.43;0.97;;;;;;;8.20;100.00;100355.42;5102460;55;1138871;-68
2022/12/26 23:03:09;;;;;;;2.23;0.90;;;;;;;8.11;100.00;100375.33;5079716;55;1138758;-70
2022/12/26 23:08:27;;;;;;;1.03;1.03;;;;;;;8.07;100.00;100387.05;5089908;55;1138633;-66
2022/12/26 23:13:33;;;;;;;4.93;1.47;;;;;;;7.96;100.00;100396.14;5130948;55;1138650;-66
2022/12/26 23:24:21;;;;;;;1.60;0.90;;;;;;;7.78;100.00;100431.65;5115625;55;1138979;-67
2022/12/26 23:34:50;;;;;;;;;;;;;;;7.29;100.00;100434.42;5052507;56;1138962;-70
2022/12/26 23:39:56;;;;;;;2.27;1.13;;;;;;;7.12;100.00;100449.14;5035795;57;973973;-69
2022/12/26 23:45:01;;;;;;;2.83;1.43;;;;;;;6.99;100.00;100453.50;5024283;57;1136587;-68
2022/12/26 23:50:08;;;;;;;1.90;0.90;;;;;;;6.85;100.00;100478.50;5043832;57;1138896;-71
2022/12/26 23:55:18;;;;;;;5.13;1.23;;;;;;;6.69;100.00;100487.81;5023966;57;1136773;-67
